sensor_id;sensor_type;location;lat;lon;timestamp;P1;durP1;ratioP1;P2;durP2;ratioP2
5704;SDS011;2877;48.238;11.160;2023-02-20T00:02:12;1.47;;;1.23;;
5704;SDS011;2877;48.238;11.160;2023-02-20T00:04:38;1.43;;;1.27;;
5704;SDS011;2877;48.238;11.160;2023-02-20T00:07:04;2.80;;;1.20;;
5704;SDS011;2877;48.238;11.160;2023-02-20T00:09:29;1.37;;;1.13;;
5704;SDS011;2877;48.238;11.160;2023-02-20T00:11:55;1.60;;;1.10;;
5704;SDS011;2877;48.238;11.160;2023-02-20T00:14:20;2.87;;;1.30;;
5704;SDS011;2877;48.238;11.160;2023-02-20T00:16:49;1.93;;;1.00;;
5704;SDS011;2877;48.238;11.160;2023-02-20T00:19:15;2.67;;;1.50;;
5704;SDS011;2877;48.238;11.160;2023-02-20T00:21:44;3.40;;;1.20;;
5704;SDS011;2877;48.238;11.160;2023-02-20T00:24:14;2.30;;;1.13;;
5704;SDS011;2877;48.238;11.160;2023-02-20T00:26:46;1.57;;;0.90;;
5704;SDS011;2877;48.238;11.160;2023-02-20T00:29:19;1.80;;;1.13;;
5704;SDS011;2877;48.238;11.160;2023-02-20T00:31:50;1.57;;;1.10;;
5704;SDS011;2877;48.238;11.160;2023-02-20T00:34:21;1.63;;;1.13;;
5704;SDS011;2877;48.238;11.160;2023-02-20T00:36:47;1.80;;;1.10;;
5704;SDS011;2877;48.238;11.160;2023-02-20T00:39:13;1.57;;;1.27;;
5704;SDS011;2877;48.238;11.160;2023-02-20T00:41:39;1.43;;;1.07;;
5704;SDS011;2877;48.238;11.160;2023-02-20T00:44:04;1.30;;;1.20;;
5704;SDS011;2877;48.238;11.160;2023-02-20T00:46:30;2.43;;;1.20;;
5704;SDS011;2877;48.238;11.160;2023-02-20T00:48:56;1.07;;;0.97;;
5704;SDS011;2877;48.238;11.160;2023-02-20T00:51:22;2.97;;;1.10;;
5704;SDS011;2877;48.238;11.160;2023-02-20T00:53:48;2.33;;;1.10;;
5704;SDS011;2877;48.238;11.160;2023-02-20T00:56:13;1.13;;;1.03;;
5704;SDS011;2877;48.238;11.160;2023-02-20T00:58:39;2.07;;;1.23;;
5704;SDS011;2877;48.238;11.160;2023-02-20T01:01:05;1.90;;;1.20;;
5704;SDS011;2877;48.238;11.160;2023-02-20T01:03:30;2.10;;;1.30;;
5704;SDS011;2877;48.238;11.160;2023-02-20T01:05:56;1.50;;;1.23;;
5704;SDS011;2877;48.238;11.160;2023-02-20T01:08:21;3.90;;;1.57;;
5704;SDS011;2877;48.238;11.160;2023-02-20T01:10:47;3.03;;;1.23;;
5704;SDS011;2877;48.238;11.160;2023-02-20T01:13:12;1.40;;;1.10;;
5704;SDS011;2877;48.238;11.160;2023-02-20T01:15:38;0.93;;;0.93;;
5704;SDS011;2877;48.238;11.160;2023-02-20T01:18:03;4.70;;;1.23;;
5704;SDS011;2877;48.238;11.160;2023-02-20T01:20:30;1.70;;;1.60;;
5704;SDS011;2877;48.238;11.160;2023-02-20T01:22:55;5.90;;;1.30;;
5704;SDS011;2877;48.238;11.160;2023-02-20T01:25:23;1.13;;;1.03;;
5704;SDS011;2877;48.238;11.160;2023-02-20T01:27:49;2.50;;;1.20;;
5704;SDS011;2877;48.238;11.160;2023-02-20T01:30:15;1.83;;;1.50;;
5704;SDS011;2877;48.238;11.160;2023-02-20T01:32:40;4.50;;;1.40;;
5704;SDS011;2877;48.238;11.160;2023-02-20T01:35:06;1.73;;;1.23;;
5704;SDS011;2877;48.238;11.160;2023-02-20T01:37:32;2.43;;;1.57;;
5704;SDS011;2877;48.238;11.160;2023-02-20T01:39:58;4.43;;;1.50;;
5704;SDS011;2877;48.238;11.160;2023-02-20T01:42:24;1.33;;;1.27;;
5704;SDS011;2877;48.238;11.160;2023-02-20T01:44:52;2.10;;;1.77;;
5704;SDS011;2877;48.238;11.160;2023-02-20T01:47:19;2.10;;;1.50;;
5704;SDS011;2877;48.238;11.160;2023-02-20T01:49:47;1.40;;;1.30;;
5704;SDS011;2877;48.238;11.160;2023-02-20T01:52:17;2.10;;;1.47;;
5704;SDS011;2877;48.238;11.160;2023-02-20T01:54:48;3.87;;;2.27;;
5704;SDS011;2877;48.238;11.160;2023-02-20T01:57:19;1.30;;;1.20;;
5704;SDS011;2877;48.238;11.160;2023-02-20T01:59:48;1.63;;;1.53;;
5704;SDS011;2877;48.238;11.160;2023-02-20T02:02:17;2.10;;;1.30;;
5704;SDS011;2877;48.238;11.160;2023-02-20T02:04:44;2.00;;;1.30;;
5704;SDS011;2877;48.238;11.160;2023-02-20T02:07:12;2.17;;;1.40;;
5704;SDS011;2877;48.238;11.160;2023-02-20T02:09:55;1.30;;;1.30;;
5704;SDS011;2877;48.238;11.160;2023-02-20T02:12:31;1.50;;;1.40;;
5704;SDS011;2877;48.238;11.160;2023-02-20T02:14:57;2.63;;;1.83;;
5704;SDS011;2877;48.238;11.160;2023-02-20T02:38:49;3.00;;;1.50;;
5704;SDS011;2877;48.238;11.160;2023-02-20T02:41:51;3.50;;;1.60;;
5704;SDS011;2877;48.238;11.160;2023-02-20T02:44:22;2.03;;;1.50;;
5704;SDS011;2877;48.238;11.160;2023-02-20T02:49:47;1.90;;;1.63;;
5704;SDS011;2877;48.238;11.160;2023-02-20T02:52:20;2.30;;;1.57;;
5704;SDS011;2877;48.238;11.160;2023-02-20T02:55:06;2.70;;;1.80;;
5704;SDS011;2877;48.238;11.160;2023-02-20T02:57:33;1.27;;;1.20;;
5704;SDS011;2877;48.238;11.160;2023-02-20T03:00:09;2.30;;;2.00;;
5704;SDS011;2877;48.238;11.160;2023-02-20T03:03:02;1.60;;;1.50;;
5704;SDS011;2877;48.238;11.160;2023-02-20T03:08:25;6.30;;;2.63;;
5704;SDS011;2877;48.238;11.160;2023-02-20T03:10:57;2.00;;;1.80;;
5704;SDS011;2877;48.238;11.160;2023-02-20T03:13:38;3.80;;;2.00;;
5704;SDS011;2877;48.238;11.160;2023-02-20T03:16:34;2.60;;;1.73;;
5704;SDS011;2877;48.238;11.160;2023-02-20T03:19:25;3.07;;;1.80;;
5704;SDS011;2877;48.238;11.160;2023-02-20T03:21:56;7.37;;;2.30;;
5704;SDS011;2877;48.238;11.160;2023-02-20T03:24:25;3.00;;;1.70;;
5704;SDS011;2877;48.238;11.160;2023-02-20T03:26:54;2.07;;;1.70;;
5704;SDS011;2877;48.238;11.160;2023-02-20T03:29:22;1.67;;;1.57;;
5704;SDS011;2877;48.238;11.160;2023-02-20T03:32:04;3.33;;;1.97;;
5704;SDS011;2877;48.238;11.160;2023-02-20T03:34:52;3.73;;;2.00;;
5704;SDS011;2877;48.238;11.160;2023-02-20T03:37:37;7.83;;;2.00;;
5704;SDS011;2877;48.238;11.160;2023-02-20T03:40:25;1.90;;;1.80;;
5704;SDS011;2877;48.238;11.160;2023-02-20T03:43:12;4.63;;;1.97;;
5704;SDS011;2877;48.238;11.160;2023-02-20T03:45:55;2.20;;;1.87;;
5704;SDS011;2877;48.238;11.160;2023-02-20T03:48:36;1.90;;;1.80;;
5704;SDS011;2877;48.238;11.160;2023-02-20T03:51:06;1.80;;;1.70;;
5704;SDS011;2877;48.238;11.160;2023-02-20T03:53:31;2.30;;;2.10;;
5704;SDS011;2877;48.238;11.160;2023-02-20T03:55:58;2.97;;;1.97;;
5704;SDS011;2877;48.238;11.160;2023-02-20T03:58:26;2.30;;;2.10;;
5704;SDS011;2877;48.238;11.160;2023-02-20T04:00:55;2.60;;;2.10;;
5704;SDS011;2877;48.238;11.160;2023-02-20T04:03:25;2.07;;;1.87;;
5704;SDS011;2877;48.238;11.160;2023-02-20T04:05:55;3.07;;;1.87;;
5704;SDS011;2877;48.238;11.160;2023-02-20T04:08:24;5.47;;;2.77;;
5704;SDS011;2877;48.238;11.160;2023-02-20T04:11:02;2.00;;;1.87;;
5704;SDS011;2877;48.238;11.160;2023-02-20T04:13:44;2.37;;;2.17;;
5704;SDS011;2877;48.238;11.160;2023-02-20T04:16:11;2.43;;;1.70;;
5704;SDS011;2877;48.238;11.160;2023-02-20T04:18:37;8.20;;;3.27;;
5704;SDS011;2877;48.238;11.160;2023-02-20T04:21:04;2.50;;;2.07;;
5704;SDS011;2877;48.238;11.160;2023-02-20T04:23:35;2.83;;;2.23;;
5704;SDS011;2877;48.238;11.160;2023-02-20T04:26:05;3.30;;;2.00;;
5704;SDS011;2877;48.238;11.160;2023-02-20T04:28:37;2.70;;;1.93;;
5704;SDS011;2877;48.238;11.160;2023-02-20T04:31:03;3.30;;;2.10;;
5704;SDS011;2877;48.238;11.160;2023-02-20T04:33:29;3.70;;;2.23;;
5704;SDS011;2877;48.238;11.160;2023-02-20T04:35:54;3.70;;;2.70;;
5704;SDS011;2877;48.238;11.160;2023-02-20T04:38:22;2.40;;;2.00;;
5704;SDS011;2877;48.238;11.160;2023-02-20T04:40:48;3.63;;;2.30;;
5704;SDS011;2877;48.238;11.160;2023-02-20T04:43:17;1.90;;;1.80;;
5704;SDS011;2877;48.238;11.160;2023-02-20T04:45:42;7.00;;;2.23;;
5704;SDS011;2877;48.238;11.160;2023-02-20T04:48:08;2.40;;;2.20;;
5704;SDS011;2877;48.238;11.160;2023-02-20T04:50:34;1.77;;;1.67;;
5704;SDS011;2877;48.238;11.160;2023-02-20T04:53:00;2.73;;;2.53;;
5704;SDS011;2877;48.238;11.160;2023-02-20T04:55:26;2.20;;;2.00;;
5704;SDS011;2877;48.238;11.160;2023-02-20T04:57:52;2.10;;;1.90;;
5704;SDS011;2877;48.238;11.160;2023-02-20T05:00:20;6.53;;;2.70;;
5704;SDS011;2877;48.238;11.160;2023-02-20T05:02:46;3.20;;;2.90;;
5704;SDS011;2877;48.238;11.160;2023-02-20T05:05:19;5.20;;;2.07;;
5704;SDS011;2877;48.238;11.160;2023-02-20T05:07:56;3.50;;;2.03;;
5704;SDS011;2877;48.238;11.160;2023-02-20T05:10:28;2.60;;;2.10;;
5704;SDS011;2877;48.238;11.160;2023-02-20T05:12:54;3.27;;;2.70;;
5704;SDS011;2877;48.238;11.160;2023-02-20T05:15:21;2.50;;;2.30;;
5704;SDS011;2877;48.238;11.160;2023-02-20T05:17:47;1.97;;;1.87;;
5704;SDS011;2877;48.238;11.160;2023-02-20T05:20:13;4.67;;;2.27;;
5704;SDS011;2877;48.238;11.160;2023-02-20T05:22:38;5.70;;;2.53;;
5704;SDS011;2877;48.238;11.160;2023-02-20T05:25:04;7.30;;;2.63;;
5704;SDS011;2877;48.238;11.160;2023-02-20T05:27:30;3.80;;;2.50;;
5704;SDS011;2877;48.238;11.160;2023-02-20T05:29:57;7.23;;;2.37;;
5704;SDS011;2877;48.238;11.160;2023-02-20T05:32:24;2.50;;;2.27;;
5704;SDS011;2877;48.238;11.160;2023-02-20T05:34:52;3.90;;;2.53;;
5704;SDS011;2877;48.238;11.160;2023-02-20T05:37:18;6.70;;;2.50;;
5704;SDS011;2877;48.238;11.160;2023-02-20T05:39:45;7.30;;;2.57;;
5704;SDS011;2877;48.238;11.160;2023-02-20T05:42:11;4.13;;;2.83;;
5704;SDS011;2877;48.238;11.160;2023-02-20T05:44:36;2.43;;;2.23;;
5704;SDS011;2877;48.238;11.160;2023-02-20T05:47:02;7.17;;;2.43;;
5704;SDS011;2877;48.238;11.160;2023-02-20T05:49:28;4.00;;;2.70;;
5704;SDS011;2877;48.238;11.160;2023-02-20T05:51:56;3.07;;;2.53;;
5704;SDS011;2877;48.238;11.160;2023-02-20T05:54:23;6.50;;;4.00;;
5704;SDS011;2877;48.238;11.160;2023-02-20T05:56:49;6.57;;;2.20;;
5704;SDS011;2877;48.238;11.160;2023-02-20T05:59:19;2.30;;;2.20;;
5704;SDS011;2877;48.238;11.160;2023-02-20T06:01:46;3.30;;;2.43;;
5704;SDS011;2877;48.238;11.160;2023-02-20T06:04:15;4.17;;;2.73;;
5704;SDS011;2877;48.238;11.160;2023-02-20T06:06:40;5.27;;;2.80;;
5704;SDS011;2877;48.238;11.160;2023-02-20T06:09:07;3.17;;;2.87;;
5704;SDS011;2877;48.238;11.160;2023-02-20T06:11:37;3.30;;;2.60;;
5704;SDS011;2877;48.238;11.160;2023-02-20T06:14:04;3.57;;;3.27;;
5704;SDS011;2877;48.238;11.160;2023-02-20T06:16:30;4.63;;;2.87;;
5704;SDS011;2877;48.238;11.160;2023-02-20T06:18:56;7.30;;;3.20;;
5704;SDS011;2877;48.238;11.160;2023-02-20T06:21:24;3.17;;;2.50;;
5704;SDS011;2877;48.238;11.160;2023-02-20T06:23:51;3.97;;;3.00;;
5704;SDS011;2877;48.238;11.160;2023-02-20T06:26:18;3.60;;;3.10;;
5704;SDS011;2877;48.238;11.160;2023-02-20T06:28:44;4.37;;;2.77;;
5704;SDS011;2877;48.238;11.160;2023-02-20T06:31:12;4.73;;;3.33;;
5704;SDS011;2877;48.238;11.160;2023-02-20T06:33:38;3.90;;;2.93;;
5704;SDS011;2877;48.238;11.160;2023-02-20T06:36:04;4.43;;;2.90;;
5704;SDS011;2877;48.238;11.160;2023-02-20T06:38:30;4.20;;;2.70;;
5704;SDS011;2877;48.238;11.160;2023-02-20T06:40:56;6.07;;;3.40;;
5704;SDS011;2877;48.238;11.160;2023-02-20T06:43:22;4.00;;;3.10;;
5704;SDS011;2877;48.238;11.160;2023-02-20T06:45:47;5.90;;;3.17;;
5704;SDS011;2877;48.238;11.160;2023-02-20T06:48:13;5.30;;;3.30;;
5704;SDS011;2877;48.238;11.160;2023-02-20T06:50:39;3.20;;;2.60;;
5704;SDS011;2877;48.238;11.160;2023-02-20T06:53:05;6.40;;;3.70;;
5704;SDS011;2877;48.238;11.160;2023-02-20T06:55:31;7.37;;;3.50;;
5704;SDS011;2877;48.238;11.160;2023-02-20T06:57:57;5.37;;;3.20;;
5704;SDS011;2877;48.238;11.160;2023-02-20T07:00:25;4.33;;;2.90;;
5704;SDS011;2877;48.238;11.160;2023-02-20T07:02:51;4.07;;;3.30;;
5704;SDS011;2877;48.238;11.160;2023-02-20T07:05:17;5.90;;;3.90;;
5704;SDS011;2877;48.238;11.160;2023-02-20T07:07:42;4.90;;;3.17;;
5704;SDS011;2877;48.238;11.160;2023-02-20T07:10:08;4.00;;;3.57;;
5704;SDS011;2877;48.238;11.160;2023-02-20T07:12:33;5.70;;;3.60;;
5704;SDS011;2877;48.238;11.160;2023-02-20T07:15:02;4.90;;;3.53;;
5704;SDS011;2877;48.238;11.160;2023-02-20T07:17:29;3.20;;;2.97;;
5704;SDS011;2877;48.238;11.160;2023-02-20T07:19:55;4.50;;;2.67;;
5704;SDS011;2877;48.238;11.160;2023-02-20T07:22:20;7.00;;;3.03;;
5704;SDS011;2877;48.238;11.160;2023-02-20T07:24:52;3.50;;;2.80;;
5704;SDS011;2877;48.238;11.160;2023-02-20T07:27:19;3.03;;;2.80;;
5704;SDS011;2877;48.238;11.160;2023-02-20T07:29:45;6.70;;;3.17;;
5704;SDS011;2877;48.238;11.160;2023-02-20T07:32:12;6.47;;;2.77;;
5704;SDS011;2877;48.238;11.160;2023-02-20T07:34:38;3.87;;;3.10;;
5704;SDS011;2877;48.238;11.160;2023-02-20T07:37:04;5.43;;;2.87;;
5704;SDS011;2877;48.238;11.160;2023-02-20T07:39:29;7.10;;;3.40;;
5704;SDS011;2877;48.238;11.160;2023-02-20T07:41:55;4.73;;;3.00;;
5704;SDS011;2877;48.238;11.160;2023-02-20T07:44:20;4.30;;;2.50;;
5704;SDS011;2877;48.238;11.160;2023-02-20T07:46:46;3.00;;;2.60;;
5704;SDS011;2877;48.238;11.160;2023-02-20T07:49:11;3.70;;;2.60;;
5704;SDS011;2877;48.238;11.160;2023-02-20T07:51:37;4.27;;;2.40;;
5704;SDS011;2877;48.238;11.160;2023-02-20T07:54:03;4.00;;;2.50;;
5704;SDS011;2877;48.238;11.160;2023-02-20T07:56:28;4.37;;;2.80;;
5704;SDS011;2877;48.238;11.160;2023-02-20T07:58:54;4.30;;;3.13;;
5704;SDS011;2877;48.238;11.160;2023-02-20T08:01:20;2.67;;;2.33;;
5704;SDS011;2877;48.238;11.160;2023-02-20T08:03:45;2.83;;;2.43;;
5704;SDS011;2877;48.238;11.160;2023-02-20T08:06:11;5.53;;;2.80;;
5704;SDS011;2877;48.238;11.160;2023-02-20T08:08:41;7.77;;;2.87;;
5704;SDS011;2877;48.238;11.160;2023-02-20T08:11:07;3.57;;;2.70;;
5704;SDS011;2877;48.238;11.160;2023-02-20T08:13:32;2.63;;;2.43;;
5704;SDS011;2877;48.238;11.160;2023-02-20T08:15:58;6.57;;;2.60;;
5704;SDS011;2877;48.238;11.160;2023-02-20T08:18:23;2.37;;;2.00;;
5704;SDS011;2877;48.238;11.160;2023-02-20T08:20:49;4.00;;;2.90;;
5704;SDS011;2877;48.238;11.160;2023-02-20T08:23:17;3.20;;;2.20;;
5704;SDS011;2877;48.238;11.160;2023-02-20T08:25:45;2.53;;;2.33;;
5704;SDS011;2877;48.238;11.160;2023-02-20T08:28:11;3.23;;;2.57;;
5704;SDS011;2877;48.238;11.160;2023-02-20T08:30:37;4.00;;;2.67;;
5704;SDS011;2877;48.238;11.160;2023-02-20T08:33:03;3.27;;;2.33;;
5704;SDS011;2877;48.238;11.160;2023-02-20T08:35:30;4.13;;;2.17;;
5704;SDS011;2877;48.238;11.160;2023-02-20T08:38:00;2.37;;;2.17;;
5704;SDS011;2877;48.238;11.160;2023-02-20T08:40:27;2.40;;;2.17;;
5704;SDS011;2877;48.238;11.160;2023-02-20T08:42:52;23.40;;;2.30;;
5704;SDS011;2877;48.238;11.160;2023-02-20T08:45:18;2.67;;;2.43;;
5704;SDS011;2877;48.238;11.160;2023-02-20T08:47:44;3.43;;;2.30;;
5704;SDS011;2877;48.238;11.160;2023-02-20T08:50:09;2.73;;;2.00;;
5704;SDS011;2877;48.238;11.160;2023-02-20T08:52:35;3.00;;;2.37;;
5704;SDS011;2877;48.238;11.160;2023-02-20T08:55:00;2.13;;;1.60;;
5704;SDS011;2877;48.238;11.160;2023-02-20T08:57:26;2.40;;;2.20;;
5704;SDS011;2877;48.238;11.160;2023-02-20T08:59:52;3.07;;;2.50;;
5704;SDS011;2877;48.238;11.160;2023-02-20T09:02:22;2.03;;;1.93;;
5704;SDS011;2877;48.238;11.160;2023-02-20T09:04:50;7.23;;;2.30;;
5704;SDS011;2877;48.238;11.160;2023-02-20T09:07:15;4.60;;;2.30;;
5704;SDS011;2877;48.238;11.160;2023-02-20T09:09:41;2.00;;;1.80;;
5704;SDS011;2877;48.238;11.160;2023-02-20T09:12:06;4.50;;;2.20;;
5704;SDS011;2877;48.238;11.160;2023-02-20T09:14:33;4.43;;;2.70;;
5704;SDS011;2877;48.238;11.160;2023-02-20T09:16:58;2.03;;;1.90;;
5704;SDS011;2877;48.238;11.160;2023-02-20T09:19:24;2.77;;;2.27;;
5704;SDS011;2877;48.238;11.160;2023-02-20T09:21:49;2.17;;;1.97;;
5704;SDS011;2877;48.238;11.160;2023-02-20T09:24:15;4.03;;;2.43;;
5704;SDS011;2877;48.238;11.160;2023-02-20T09:26:41;2.33;;;2.10;;
5704;SDS011;2877;48.238;11.160;2023-02-20T09:29:07;1.70;;;1.60;;
5704;SDS011;2877;48.238;11.160;2023-02-20T09:31:32;5.17;;;2.80;;
5704;SDS011;2877;48.238;11.160;2023-02-20T09:33:58;3.23;;;2.20;;
5704;SDS011;2877;48.238;11.160;2023-02-20T09:36:24;3.93;;;2.00;;
5704;SDS011;2877;48.238;11.160;2023-02-20T09:38:50;3.20;;;2.10;;
5704;SDS011;2877;48.238;11.160;2023-02-20T09:46:37;2.33;;;2.03;;
5704;SDS011;2877;48.238;11.160;2023-02-20T09:49:14;3.60;;;1.80;;
5704;SDS011;2877;48.238;11.160;2023-02-20T09:51:44;5.03;;;2.03;;
5704;SDS011;2877;48.238;11.160;2023-02-20T09:56:53;7.23;;;2.03;;
5704;SDS011;2877;48.238;11.160;2023-02-20T10:01:54;2.47;;;1.80;;
5704;SDS011;2877;48.238;11.160;2023-02-20T10:04:26;4.10;;;2.23;;
5704;SDS011;2877;48.238;11.160;2023-02-20T10:07:01;2.50;;;2.13;;
5704;SDS011;2877;48.238;11.160;2023-02-20T10:09:37;1.60;;;1.50;;
5704;SDS011;2877;48.238;11.160;2023-02-20T10:12:11;3.80;;;2.17;;
5704;SDS011;2877;48.238;11.160;2023-02-20T10:22:35;4.20;;;3.03;;
5704;SDS011;2877;48.238;11.160;2023-02-20T10:25:20;2.77;;;2.10;;
5704;SDS011;2877;48.238;11.160;2023-02-20T10:30:47;3.13;;;2.47;;
5704;SDS011;2877;48.238;11.160;2023-02-20T10:36:01;2.33;;;2.10;;
5704;SDS011;2877;48.238;11.160;2023-02-20T10:38:37;4.27;;;1.93;;
5704;SDS011;2877;48.238;11.160;2023-02-20T10:41:29;4.47;;;1.97;;
5704;SDS011;2877;48.238;11.160;2023-02-20T10:44:02;2.10;;;1.90;;
5704;SDS011;2877;48.238;11.160;2023-02-20T10:46:39;2.50;;;1.87;;
5704;SDS011;2877;48.238;11.160;2023-02-20T10:49:16;2.33;;;2.13;;
5704;SDS011;2877;48.238;11.160;2023-02-20T10:51:49;2.00;;;1.83;;
5704;SDS011;2877;48.238;11.160;2023-02-20T10:54:50;2.47;;;1.70;;
5704;SDS011;2877;48.238;11.160;2023-02-20T10:57:13;2.13;;;1.97;;
5704;SDS011;2877;48.238;11.160;2023-02-20T10:59:54;2.73;;;1.93;;
5704;SDS011;2877;48.238;11.160;2023-02-20T11:02:29;3.73;;;2.30;;
5704;SDS011;2877;48.238;11.160;2023-02-20T11:05:01;2.60;;;2.20;;
5704;SDS011;2877;48.238;11.160;2023-02-20T11:07:31;2.33;;;2.10;;
5704;SDS011;2877;48.238;11.160;2023-02-20T11:09:57;4.07;;;2.17;;
5704;SDS011;2877;48.238;11.160;2023-02-20T11:12:45;2.70;;;1.80;;
5704;SDS011;2877;48.238;11.160;2023-02-20T11:15:15;5.33;;;2.23;;
5704;SDS011;2877;48.238;11.160;2023-02-20T11:17:47;3.20;;;2.00;;
5704;SDS011;2877;48.238;11.160;2023-02-20T11:22:57;3.03;;;1.90;;
5704;SDS011;2877;48.238;11.160;2023-02-20T11:25:30;2.10;;;1.90;;
5704;SDS011;2877;48.238;11.160;2023-02-20T11:28:10;2.30;;;1.80;;
5704;SDS011;2877;48.238;11.160;2023-02-20T11:31:02;1.80;;;1.70;;
5704;SDS011;2877;48.238;11.160;2023-02-20T11:33:34;2.83;;;1.80;;
5704;SDS011;2877;48.238;11.160;2023-02-20T11:36:16;3.53;;;2.10;;
5704;SDS011;2877;48.238;11.160;2023-02-20T11:38:46;1.80;;;1.70;;
5704;SDS011;2877;48.238;11.160;2023-02-20T11:41:23;1.97;;;1.87;;
5704;SDS011;2877;48.238;11.160;2023-02-20T11:44:06;3.00;;;1.57;;
5704;SDS011;2877;48.238;11.160;2023-02-20T11:46:41;1.40;;;1.30;;
5704;SDS011;2877;48.238;11.160;2023-02-20T11:49:08;1.60;;;1.50;;
5704;SDS011;2877;48.238;11.160;2023-02-20T11:54:06;2.77;;;1.30;;
5704;SDS011;2877;48.238;11.160;2023-02-20T11:56:46;2.20;;;1.40;;
5704;SDS011;2877;48.238;11.160;2023-02-20T12:02:09;2.03;;;1.50;;
5704;SDS011;2877;48.238;11.160;2023-02-20T12:04:37;2.03;;;1.33;;
5704;SDS011;2877;48.238;11.160;2023-02-20T12:07:25;2.17;;;1.23;;
5704;SDS011;2877;48.238;11.160;2023-02-20T12:09:57;1.63;;;1.53;;
5704;SDS011;2877;48.238;11.160;2023-02-20T12:12:31;4.73;;;1.40;;
5704;SDS011;2877;48.238;11.160;2023-02-20T12:14:57;2.93;;;1.70;;
5704;SDS011;2877;48.238;11.160;2023-02-20T12:20:12;1.90;;;1.80;;
5704;SDS011;2877;48.238;11.160;2023-02-20T12:22:44;2.30;;;1.70;;
5704;SDS011;2877;48.238;11.160;2023-02-20T12:26:20;1.60;;;1.50;;
5704;SDS011;2877;48.238;11.160;2023-02-20T12:31:32;1.40;;;1.30;;
5704;SDS011;2877;48.238;11.160;2023-02-20T12:42:33;1.23;;;1.10;;
5704;SDS011;2877;48.238;11.160;2023-02-20T12:45:19;1.17;;;1.10;;
5704;SDS011;2877;48.238;11.160;2023-02-20T12:48:11;1.07;;;0.80;;
5704;SDS011;2877;48.238;11.160;2023-02-20T12:50:58;1.27;;;1.13;;
5704;SDS011;2877;48.238;11.160;2023-02-20T13:02:19;3.27;;;1.13;;
5704;SDS011;2877;48.238;11.160;2023-02-20T13:04:53;0.70;;;0.70;;
5704;SDS011;2877;48.238;11.160;2023-02-20T13:07:56;1.37;;;1.07;;
5704;SDS011;2877;48.238;11.160;2023-02-20T13:10:31;1.10;;;0.83;;
5704;SDS011;2877;48.238;11.160;2023-02-20T13:12:58;0.90;;;0.90;;
5704;SDS011;2877;48.238;11.160;2023-02-20T13:15:32;1.47;;;1.00;;
5704;SDS011;2877;48.238;11.160;2023-02-20T13:20:57;1.10;;;0.60;;
5704;SDS011;2877;48.238;11.160;2023-02-20T13:23:36;1.63;;;1.03;;
5704;SDS011;2877;48.238;11.160;2023-02-20T13:26:42;1.20;;;1.17;;
5704;SDS011;2877;48.238;11.160;2023-02-20T13:28:51;0.87;;;0.80;;
5704;SDS011;2877;48.238;11.160;2023-02-20T13:31:18;0.70;;;0.70;;
5704;SDS011;2877;48.238;11.160;2023-02-20T14:03:16;0.87;;;0.80;;
5704;SDS011;2877;48.238;11.160;2023-02-20T14:05:44;1.23;;;0.90;;
5704;SDS011;2877;48.238;11.160;2023-02-20T14:08:17;1.60;;;0.90;;
5704;SDS011;2877;48.238;11.160;2023-02-20T14:10:43;1.23;;;0.80;;
5704;SDS011;2877;48.238;11.160;2023-02-20T14:13:12;1.63;;;1.00;;
5704;SDS011;2877;48.238;11.160;2023-02-20T14:18:31;1.70;;;0.90;;
5704;SDS011;2877;48.238;11.160;2023-02-20T14:23:54;1.27;;;0.80;;
5704;SDS011;2877;48.238;11.160;2023-02-20T14:26:21;2.30;;;1.00;;
5704;SDS011;2877;48.238;11.160;2023-02-20T14:28:51;1.20;;;0.93;;
5704;SDS011;2877;48.238;11.160;2023-02-20T14:31:34;1.43;;;0.90;;
5704;SDS011;2877;48.238;11.160;2023-02-20T14:34:06;1.40;;;1.30;;
5704;SDS011;2877;48.238;11.160;2023-02-20T14:36:34;2.30;;;1.10;;
5704;SDS011;2877;48.238;11.160;2023-02-20T14:42:20;1.50;;;1.40;;
5704;SDS011;2877;48.238;11.160;2023-02-20T14:44:48;3.83;;;1.30;;
5704;SDS011;2877;48.238;11.160;2023-02-20T14:47:15;1.53;;;1.20;;
5704;SDS011;2877;48.238;11.160;2023-02-20T14:49:41;1.17;;;1.07;;
5704;SDS011;2877;48.238;11.160;2023-02-20T14:52:12;1.60;;;1.10;;
5704;SDS011;2877;48.238;11.160;2023-02-20T14:54:41;1.83;;;1.00;;
5704;SDS011;2877;48.238;11.160;2023-02-20T14:57:17;1.50;;;1.40;;
5704;SDS011;2877;48.238;11.160;2023-02-20T14:59:42;1.50;;;1.07;;
5704;SDS011;2877;48.238;11.160;2023-02-20T15:02:21;1.53;;;1.20;;
5704;SDS011;2877;48.238;11.160;2023-02-20T15:04:51;1.90;;;1.33;;
5704;SDS011;2877;48.238;11.160;2023-02-20T15:07:26;2.03;;;1.07;;
5704;SDS011;2877;48.238;11.160;2023-02-20T15:09:54;3.43;;;1.30;;
5704;SDS011;2877;48.238;11.160;2023-02-20T15:12:29;1.27;;;1.00;;
5704;SDS011;2877;48.238;11.160;2023-02-20T15:14:59;1.40;;;1.00;;
5704;SDS011;2877;48.238;11.160;2023-02-20T15:17:37;1.33;;;1.10;;
5704;SDS011;2877;48.238;11.160;2023-02-20T15:20:28;3.07;;;1.50;;
5704;SDS011;2877;48.238;11.160;2023-02-20T15:23:09;1.00;;;0.90;;
5704;SDS011;2877;48.238;11.160;2023-02-20T15:25:45;1.73;;;0.90;;
5704;SDS011;2877;48.238;11.160;2023-02-20T15:33:53;2.97;;;1.53;;
5704;SDS011;2877;48.238;11.160;2023-02-20T15:36:20;2.03;;;0.90;;
5704;SDS011;2877;48.238;11.160;2023-02-20T15:38:53;1.47;;;1.33;;
5704;SDS011;2877;48.238;11.160;2023-02-20T15:41:20;5.80;;;1.50;;
5704;SDS011;2877;48.238;11.160;2023-02-20T15:43:47;2.40;;;1.07;;
5704;SDS011;2877;48.238;11.160;2023-02-20T15:46:13;2.83;;;1.20;;
5704;SDS011;2877;48.238;11.160;2023-02-20T15:48:40;2.40;;;0.83;;
5704;SDS011;2877;48.238;11.160;2023-02-20T15:51:06;2.30;;;1.20;;
5704;SDS011;2877;48.238;11.160;2023-02-20T15:53:33;2.03;;;1.30;;
5704;SDS011;2877;48.238;11.160;2023-02-20T15:55:59;2.30;;;2.10;;
5704;SDS011;2877;48.238;11.160;2023-02-20T15:58:27;1.60;;;1.50;;
5704;SDS011;2877;48.238;11.160;2023-02-20T16:00:55;2.73;;;1.37;;
5704;SDS011;2877;48.238;11.160;2023-02-20T16:03:22;1.50;;;1.40;;
5704;SDS011;2877;48.238;11.160;2023-02-20T16:05:49;1.33;;;1.23;;
5704;SDS011;2877;48.238;11.160;2023-02-20T16:08:14;4.60;;;2.00;;
5704;SDS011;2877;48.238;11.160;2023-02-20T16:10:40;1.23;;;1.13;;
5704;SDS011;2877;48.238;11.160;2023-02-20T16:13:07;1.50;;;1.40;;
5704;SDS011;2877;48.238;11.160;2023-02-20T16:16:02;1.77;;;1.67;;
5704;SDS011;2877;48.238;11.160;2023-02-20T16:18:37;1.80;;;1.20;;
5704;SDS011;2877;48.238;11.160;2023-02-20T16:21:02;2.67;;;1.47;;
5704;SDS011;2877;48.238;11.160;2023-02-20T16:23:28;1.87;;;1.03;;
5704;SDS011;2877;48.238;11.160;2023-02-20T16:25:54;5.40;;;1.00;;
5704;SDS011;2877;48.238;11.160;2023-02-20T16:28:20;1.03;;;0.93;;
5704;SDS011;2877;48.238;11.160;2023-02-20T16:30:46;2.60;;;1.20;;
5704;SDS011;2877;48.238;11.160;2023-02-20T16:33:18;0.80;;;0.80;;
5704;SDS011;2877;48.238;11.160;2023-02-20T16:35:45;4.67;;;0.80;;
5704;SDS011;2877;48.238;11.160;2023-02-20T16:38:12;0.80;;;0.80;;
5704;SDS011;2877;48.238;11.160;2023-02-20T16:40:38;1.20;;;0.77;;
5704;SDS011;2877;48.238;11.160;2023-02-20T16:43:04;0.80;;;0.80;;
5704;SDS011;2877;48.238;11.160;2023-02-20T16:45:30;2.30;;;1.77;;
5704;SDS011;2877;48.238;11.160;2023-02-20T16:47:55;1.13;;;0.90;;
5704;SDS011;2877;48.238;11.160;2023-02-20T16:50:24;1.30;;;1.20;;
5704;SDS011;2877;48.238;11.160;2023-02-20T16:52:57;1.30;;;0.90;;
5704;SDS011;2877;48.238;11.160;2023-02-20T16:55:34;1.67;;;0.90;;
5704;SDS011;2877;48.238;11.160;2023-02-20T16:58:01;2.60;;;0.90;;
5704;SDS011;2877;48.238;11.160;2023-02-20T17:00:38;3.30;;;2.07;;
5704;SDS011;2877;48.238;11.160;2023-02-20T17:03:05;7.13;;;2.30;;
5704;SDS011;2877;48.238;11.160;2023-02-20T17:05:32;14.10;;;7.60;;
5704;SDS011;2877;48.238;11.160;2023-02-20T17:07:59;9.80;;;5.60;;
5704;SDS011;2877;48.238;11.160;2023-02-20T17:10:26;12.03;;;8.27;;
5704;SDS011;2877;48.238;11.160;2023-02-20T17:12:53;8.17;;;6.30;;
5704;SDS011;2877;48.238;11.160;2023-02-20T17:15:20;12.10;;;6.93;;
5704;SDS011;2877;48.238;11.160;2023-02-20T17:17:47;8.87;;;6.17;;
5704;SDS011;2877;48.238;11.160;2023-02-20T17:20:14;9.63;;;4.47;;
5704;SDS011;2877;48.238;11.160;2023-02-20T17:22:41;3.20;;;2.90;;
5704;SDS011;2877;48.238;11.160;2023-02-20T17:25:08;4.07;;;2.47;;
5704;SDS011;2877;48.238;11.160;2023-02-20T17:27:36;2.40;;;2.13;;